Weslaco Annex Farm's Hourly Summary for Sunday, March 19, 2017
Hour Temp
(f)
RH
(%)
Solar Rad.
(MJ/m2)
Rainfall
(in)
Wind
(mph)
3/19/2017 12:00 AM 69 93 0 0 3.69
3/19/2017 1:00 AM 67 96 0 0 2.52
3/19/2017 2:00 AM 66 98 0 0 1.37
3/19/2017 3:00 AM 66 98 0 0 1.24
3/19/2017 4:00 AM 66 99 0 0 1.16
3/19/2017 5:00 AM 65 99 0 0 1.28
3/19/2017 6:00 AM 66 100 0 0 0.82
3/19/2017 7:00 AM 67 100 0.01 0 1.2
3/19/2017 8:00 AM 68 99 0.16 0 1.75
3/19/2017 9:00 AM 71 97 0.41 0 4.33
3/19/2017 10:00 AM 75 86 0.86 0 7.59
3/19/2017 11:00 AM 79 73 1.05 0 10.19
3/19/2017 12:00 PM 82 63 1.28 0 10.04
3/19/2017 1:00 PM 84 57 1.52 0 9.16
3/19/2017 2:00 PM 85 53 1.47 0 9.06
3/19/2017 3:00 PM 85 49 1.31 0 9.65
3/19/2017 4:00 PM 85 47 1.06 0 9.2
3/19/2017 5:00 PM 84 49 0.74 0 8.02
3/19/2017 6:00 PM 81 50 0.38 0 7.56
3/19/2017 7:00 PM 78 58 0.05 0 5.81
3/19/2017 8:00 PM 74 71 0 0 3.92
3/19/2017 9:00 PM 71 80 0 0 3.56
3/19/2017 10:00 PM 70 86 0 0 3.15
3/19/2017 11:00 PM 69 88 0 0 3.95
Data Summary 73 78 10.30 0.00 5.01